Time;durP1;ratioP1;P1;durP2;ratioP2;P2;SDS_P1;SDS_P2;PMS_P1;PMS_P2;Temp;Humidity;BMP_temperature;BMP_pressure;BME280_temperature;BME280_humidity;BME280_pressure;Samples;Min_cycle;Max_cycle;Signal;HPM_P1;HPM_P2
2022/03/29 00:01:52;;;;;;;13.73;8.25;;;12.00;90.10;;;;;;5114240;28;20038;-41
2022/03/29 00:04:18;;;;;;;15.98;9.13;;;12.00;90.60;;;;;;5114214;28;20027;-42
2022/03/29 00:06:44;;;;;;;20.20;10.05;;;12.00;90.70;;;;;;5114248;28;20107;-41
2022/03/29 00:09:09;;;;;;;16.77;10.98;;;12.00;90.80;;;;;;5113844;28;20118;-43
2022/03/29 00:11:35;;;;;;;15.25;10.40;;;11.90;90.80;;;;;;5113955;28;20070;-41
2022/03/29 00:14:02;;;;;;;13.25;9.40;;;11.90;90.80;;;;;;5114057;28;20535;-40
2022/03/29 00:16:28;;;;;;;16.92;10.23;;;11.80;91.10;;;;;;5113926;28;20089;-40
2022/03/29 00:18:53;;;;;;;14.23;9.52;;;11.90;91.60;;;;;;5113958;28;20027;-43
2022/03/29 00:21:19;;;;;;;17.58;8.50;;;11.80;91.60;;;;;;5113925;28;20106;-45
2022/03/29 00:23:44;;;;;;;12.40;8.98;;;11.80;92.10;;;;;;5113931;28;20031;-43
2022/03/29 00:26:10;;;;;;;17.10;9.70;;;11.80;92.10;;;;;;5113870;28;20498;-42
2022/03/29 00:28:35;;;;;;;19.20;10.25;;;11.70;92.10;;;;;;5113502;28;20020;-43
2022/03/29 00:31:01;;;;;;;13.80;8.98;;;11.70;92.20;;;;;;5113499;28;20518;-44
2022/03/29 00:33:26;;;;;;;16.95;9.82;;;11.60;92.30;;;;;;5113698;28;20126;-42
2022/03/29 00:35:52;;;;;;;16.05;9.75;;;11.60;91.90;;;;;;5095358;28;20059;-44
2022/03/29 00:38:18;;;;;;;15.57;10.30;;;11.60;92.40;;;;;;5113264;28;20401;-43
2022/03/29 00:40:44;;;;;;;14.15;8.95;;;11.60;92.00;;;;;;5113499;28;20069;-41
2022/03/29 00:43:10;;;;;;;15.82;10.13;;;11.50;92.30;;;;;;5113531;28;20478;-41
2022/03/29 00:45:36;;;;;;;14.07;10.05;;;11.60;92.00;;;;;;5113326;28;20058;-40
2022/03/29 00:48:02;;;;;;;14.35;10.20;;;11.60;91.60;;;;;;5113225;28;20547;-44
2022/03/29 00:50:28;;;;;;;16.48;11.07;;;11.50;92.10;;;;;;5113512;28;20063;-41
2022/03/29 00:52:53;;;;;;;25.48;11.38;;;11.40;91.90;;;;;;5113420;28;20030;-40
2022/03/29 00:55:19;;;;;;;22.38;11.60;;;11.20;92.10;;;;;;5113327;28;20024;-42
2022/03/29 00:57:46;;;;;;;23.05;11.70;;;11.10;92.70;;;;;;5113054;28;20098;-43
2022/03/29 01:00:16;;;;;;;25.77;13.18;;;11.10;92.80;;;;;;5113245;28;20020;-43
2022/03/29 01:02:43;;;;;;;29.13;12.70;;;10.90;92.70;;;;;;5113343;28;20027;-42
2022/03/29 01:05:08;;;;;;;26.88;13.27;;;10.90;92.70;;;;;;5113101;28;20023;-39
2022/03/29 01:07:35;;;;;;;24.83;14.38;;;10.80;93.10;;;;;;5112752;28;20077;-40
2022/03/29 01:10:01;;;;;;;21.77;13.30;;;10.80;93.30;;;;;;5112464;28;20106;-42
2022/03/29 01:12:29;;;;;;;22.92;13.95;;;10.90;93.00;;;;;;5112871;28;20098;-42
2022/03/29 01:14:55;;;;;;;30.27;14.63;;;11.00;92.60;;;;;;5094810;28;20543;-39
2022/03/29 01:17:38;;;;;;;25.30;14.60;;;11.10;92.20;;;;;;5112701;28;20052;-42
2022/03/29 01:20:09;;;;;;;30.48;15.45;;;11.10;91.80;;;;;;5113083;28;20062;-43
2022/03/29 01:22:38;;;;;;;23.58;14.75;;;11.20;91.60;;;;;;5113246;28;20088;-44
2022/03/29 01:25:06;;;;;;;28.98;14.90;;;11.40;91.70;;;;;;5112828;28;20111;-43
2022/03/29 01:27:32;;;;;;;24.90;14.20;;;11.40;91.80;;;;;;5112589;28;20031;-42
2022/03/29 01:29:59;;;;;;;27.05;14.15;;;11.50;91.50;;;;;;5112667;28;20426;-42
2022/03/29 01:32:29;;;;;;;28.95;13.80;;;11.60;91.00;;;;;;5112316;28;20024;-42
2022/03/29 01:34:57;;;;;;;27.25;13.52;;;11.50;91.00;;;;;;5094426;28;20441;-44
2022/03/29 01:37:24;;;;;;;20.02;12.70;;;11.40;90.90;;;;;;5112179;28;20031;-46
2022/03/29 01:39:49;;;;;;;36.40;15.10;;;11.30;91.30;;;;;;5112459;28;20024;-39
2022/03/29 01:42:18;;;;;;;28.30;14.40;;;11.30;91.20;;;;;;5112614;28;20081;-44
2022/03/29 01:44:43;;;;;;;26.52;13.25;;;11.30;91.00;;;;;;5112512;28;20023;-44
2022/03/29 01:47:09;;;;;;;19.08;13.18;;;11.30;91.00;;;;;;5112036;28;20454;-47
2022/03/29 01:49:35;;;;;;;27.00;14.60;;;11.40;91.20;;;;;;5112372;28;20030;-41
2022/03/29 01:52:01;;;;;;;27.20;15.95;;;11.40;90.60;;;;;;5111578;28;20019;-45
2022/03/29 01:54:27;;;;;;;29.15;16.10;;;11.50;90.20;;;;;;5112354;28;20030;-45
2022/03/29 01:56:52;;;;;;;25.50;15.63;;;11.60;90.20;;;;;;5112299;28;20034;-39
2022/03/29 01:59:18;;;;;;;26.73;16.00;;;11.70;90.30;;;;;;5112361;28;20034;-43
2022/03/29 02:01:46;;;;;;;21.42;14.20;;;11.80;90.80;;;;;;5112096;28;20023;-43
2022/03/29 02:04:12;;;;;;;26.98;14.30;;;11.80;90.90;;;;;;5112092;28;20024;-46
2022/03/29 02:06:38;;;;;;;22.65;12.48;;;11.90;90.70;;;;;;5112060;28;20015;-43
2022/03/29 02:09:08;;;;;;;25.15;13.15;;;11.80;91.40;;;;;;5111856;28;20044;-44
2022/03/29 02:11:35;;;;;;;24.80;14.00;;;11.70;91.50;;;;;;5112164;28;20027;-46
2022/03/29 02:14:01;;;;;;;25.30;14.88;;;11.70;91.50;;;;;;5112813;28;20023;-46
2022/03/29 02:16:26;;;;;;;26.55;15.93;;;11.70;91.10;;;;;;5110810;28;20372;-44
2022/03/29 02:18:52;;;;;;;33.20;17.73;;;11.70;90.70;;;;;;5111760;28;20032;-42
2022/03/29 02:21:17;;;;;;;28.48;17.52;;;11.90;90.50;;;;;;5112195;28;20471;-43
2022/03/29 02:23:43;;;;;;;32.65;17.83;;;11.90;90.70;;;;;;5112060;28;20039;-43
2022/03/29 02:26:09;;;;;;;32.40;18.27;;;12.00;90.90;;;;;;5093734;28;20024;-42
2022/03/29 02:28:35;;;;;;;28.85;17.10;;;12.00;91.00;;;;;;5093394;28;20577;-41
2022/03/29 02:31:01;;;;;;;32.95;17.27;;;12.00;91.10;;;;;;5111691;28;20031;-43
2022/03/29 02:33:26;;;;;;;28.45;16.58;;;11.90;91.20;;;;;;5132896;22;20051;-42
2022/03/29 02:35:52;;;;;;;26.42;15.98;;;11.90;91.40;;;;;;5112397;28;20016;-44
2022/03/29 02:38:20;;;;;;;31.17;17.20;;;11.80;91.60;;;;;;5112081;28;20023;-42
2022/03/29 02:40:46;;;;;;;24.52;14.25;;;11.70;91.60;;;;;;5112588;28;20027;-44
2022/03/29 02:43:12;;;;;;;21.13;13.02;;;11.70;92.10;;;;;;5112697;28;20028;-43
2022/03/29 02:45:37;;;;;;;21.20;13.15;;;11.60;92.00;;;;;;5094790;28;20031;-46
2022/03/29 02:48:03;;;;;;;20.48;13.23;;;11.50;92.60;;;;;;5113389;28;20031;-40
2022/03/29 02:50:28;;;;;;;18.42;12.45;;;11.40;92.60;;;;;;5114247;28;20024;-42
2022/03/29 02:52:57;;;;;;;17.02;11.25;;;11.30;93.50;;;;;;5094669;28;20028;-42
2022/03/29 02:55:24;;;;;;;19.02;11.18;;;11.20;94.10;;;;;;5094300;28;20130;-42
2022/03/29 02:57:50;;;;;;;19.05;11.63;;;11.10;94.20;;;;;;5112106;28;20020;-46
2022/03/29 03:00:17;;;;;;;20.67;12.05;;;11.00;94.50;;;;;;5112555;28;20091;-45
2022/03/29 03:02:44;;;;;;;18.63;12.55;;;10.90;94.60;;;;;;5114772;28;20027;-43
2022/03/29 03:05:10;;;;;;;20.70;11.77;;;10.90;95.00;;;;;;5097867;28;20078;-42
2022/03/29 03:07:37;;;;;;;21.35;11.90;;;10.90;95.40;;;;;;5115872;28;20020;-47
2022/03/29 03:10:03;;;;;;;19.55;11.07;;;10.80;95.50;;;;;;5115774;28;20507;-44
2022/03/29 03:12:33;;;;;;;20.05;13.18;;;10.80;95.50;;;;;;5116303;28;20157;-43
2022/03/29 03:14:58;;;;;;;14.60;11.35;;;10.70;95.60;;;;;;5116142;28;20039;-45
2022/03/29 03:17:24;;;;;;;20.38;13.02;;;10.60;96.00;;;;;;5115637;28;20027;-45
2022/03/29 03:19:49;;;;;;;25.20;13.05;;;10.60;96.00;;;;;;5116181;28;20036;-42
2022/03/29 03:22:15;;;;;;;20.30;11.65;;;10.50;96.20;;;;;;5115852;28;20542;-47
2022/03/29 03:24:40;;;;;;;22.40;13.43;;;10.50;96.70;;;;;;5115973;28;20063;-42
2022/03/29 03:27:06;;;;;;;19.40;11.90;;;10.50;96.50;;;;;;5115665;28;20024;-42
2022/03/29 03:29:32;;;;;;;19.15;13.13;;;10.50;96.50;;;;;;5116059;28;20054;-41
2022/03/29 03:31:58;;;;;;;18.77;12.93;;;10.50;96.50;;;;;;5116035;28;20067;-45
2022/03/29 03:34:24;;;;;;;19.55;12.85;;;10.50;96.60;;;;;;5116093;28;20502;-45
2022/03/29 03:36:49;;;;;;;20.33;13.20;;;10.50;96.60;;;;;;5115440;28;20035;-44
2022/03/29 03:39:15;;;;;;;28.02;14.00;;;10.40;96.30;;;;;;5115415;28;20043;-46
2022/03/29 03:41:40;;;;;;;25.38;14.18;;;10.40;96.30;;;;;;5115502;28;20027;-43
2022/03/29 03:44:06;;;;;;;25.17;13.38;;;10.40;95.70;;;;;;5097157;28;20055;-46
2022/03/29 03:46:32;;;;;;;22.05;14.80;;;10.50;95.80;;;;;;5115529;28;20058;-42
2022/03/29 03:48:57;;;;;;;21.73;14.00;;;10.50;96.30;;;;;;5115646;28;20028;-43
2022/03/29 03:51:23;;;;;;;19.17;12.25;;;10.50;96.70;;;;;;5115726;28;20024;-42
2022/03/29 03:53:50;;;;;;;21.20;12.32;;;10.40;96.70;;;;;;5116733;28;20030;-42
2022/03/29 03:56:15;;;;;;;23.73;14.07;;;10.40;96.50;;;;;;5118273;28;20055;-42
2022/03/29 03:58:41;;;;;;;20.65;12.00;;;10.40;96.80;;;;;;5115736;28;20387;-47
2022/03/29 04:01:11;;;;;;;19.75;12.45;;;10.40;96.90;;;;;;5115213;28;20096;-45
2022/03/29 04:03:37;;;;;;;21.25;13.35;;;10.50;96.80;;;;;;5115272;28;20090;-49
2022/03/29 04:06:03;;;;;;;26.70;14.52;;;10.40;97.20;;;;;;5115762;28;20156;-44
2022/03/29 04:08:28;;;;;;;18.67;12.07;;;10.50;97.40;;;;;;5114483;28;20058;-42
2022/03/29 04:10:54;;;;;;;24.95;13.05;;;10.40;97.60;;;;;;5115947;28;20027;-43
2022/03/29 04:13:19;;;;;;;16.98;11.63;;;10.30;97.90;;;;;;5114662;28;20031;-47
2022/03/29 04:15:45;;;;;;;19.25;12.30;;;10.40;98.10;;;;;;5114893;28;20108;-41
2022/03/29 04:18:11;;;;;;;17.58;11.85;;;10.30;98.10;;;;;;5096560;28;20020;-45
2022/03/29 04:20:36;;;;;;;16.65;12.25;;;10.30;98.10;;;;;;5096577;28;20099;-43
2022/03/29 04:23:02;;;;;;;17.30;12.38;;;10.30;98.20;;;;;;5114910;28;20076;-44
2022/03/29 04:25:27;;;;;;;27.65;15.05;;;10.20;97.60;;;;;;5096711;28;20027;-44
2022/03/29 04:27:53;;;;;;;28.73;14.45;;;10.20;97.60;;;;;;5095909;28;20027;-43
2022/03/29 04:30:18;;;;;;;22.83;13.32;;;10.20;97.30;;;;;;5115053;28;20023;-43
2022/03/29 04:32:44;;;;;;;24.83;13.80;;;10.20;97.30;;;;;;5114543;28;20417;-46
2022/03/29 04:35:10;;;;;;;21.38;13.93;;;10.20;97.20;;;;;;5096388;28;20046;-42
2022/03/29 04:37:35;;;;;;;22.05;14.57;;;10.20;97.30;;;;;;5114703;28;20020;-44
2022/03/29 04:40:05;;;;;;;29.80;18.20;;;10.20;97.30;;;;;;5114674;28;20437;-44
2022/03/29 04:42:30;;;;;;;41.85;20.23;;;10.20;97.20;;;;;;5114546;28;20229;-42
2022/03/29 04:44:56;;;;;;;29.08;18.90;;;10.30;97.30;;;;;;5114309;28;20032;-42
2022/03/29 04:47:21;;;;;;;28.23;16.42;;;10.40;97.40;;;;;;5114415;28;20488;-42
2022/03/29 04:49:47;;;;;;;26.58;14.35;;;10.40;97.30;;;;;;5114536;28;20034;-41
2022/03/29 04:52:13;;;;;;;27.83;14.30;;;10.40;97.30;;;;;;5114334;28;20031;-45
2022/03/29 04:54:38;;;;;;;22.65;14.02;;;10.40;97.60;;;;;;5096191;28;20034;-45
2022/03/29 04:57:04;;;;;;;25.65;13.57;;;10.40;97.70;;;;;;5096019;28;20030;-43
2022/03/29 04:59:29;;;;;;;22.80;14.68;;;10.30;97.80;;;;;;5114681;28;20015;-46
2022/03/29 05:01:55;;;;;;;23.23;16.35;;;10.30;97.70;;;;;;5114152;28;20503;-41
2022/03/29 05:04:21;;;;;;;26.92;16.58;;;10.30;97.80;;;;;;5114383;28;20018;-43
2022/03/29 05:06:46;;;;;;;32.20;17.13;;;10.20;98.10;;;;;;5114397;28;20107;-43
2022/03/29 05:09:12;;;;;;;31.52;14.85;;;10.20;98.10;;;;;;5114313;28;20432;-46
2022/03/29 05:11:37;;;;;;;20.40;14.73;;;10.20;98.10;;;;;;5095534;28;20030;-43
2022/03/29 05:14:03;;;;;;;23.08;14.50;;;10.20;98.10;;;;;;5114122;28;20028;-45
2022/03/29 05:16:28;;;;;;;22.35;14.00;;;10.20;98.40;;;;;;5114120;28;20485;-44
2022/03/29 05:18:54;;;;;;;26.55;13.68;;;10.10;98.80;;;;;;5113841;28;20023;-44
2022/03/29 05:21:20;;;;;;;24.35;14.85;;;10.00;99.10;;;;;;5095625;28;20065;-42
2022/03/29 05:23:45;;;;;;;21.35;14.52;;;10.00;99.10;;;;;;5114125;28;20398;-44
2022/03/29 05:26:11;;;;;;;28.05;14.18;;;10.00;99.00;;;;;;5112988;28;20032;-44
2022/03/29 05:28:36;;;;;;;23.70;14.57;;;10.00;99.10;;;;;;5113968;28;20208;-46
2022/03/29 05:31:02;;;;;;;25.55;14.20;;;10.10;99.60;;;;;;5114178;28;20169;-42
2022/03/29 05:33:27;;;;;;;25.33;13.85;;;10.10;99.50;;;;;;5113755;28;20031;-44
2022/03/29 05:35:53;;;;;;;24.65;14.98;;;10.10;99.90;;;;;;5095712;28;20043;-45
2022/03/29 05:38:18;;;;;;;34.67;18.25;;;10.00;99.90;;;;;;5113568;28;20391;-44
2022/03/29 05:40:44;;;;;;;24.95;17.85;;;10.10;99.70;;;;;;5113639;28;20081;-43
2022/03/29 05:43:11;;;;;;;33.70;18.52;;;10.20;99.20;;;;;;5114090;28;20039;-44
2022/03/29 05:45:37;;;;;;;28.95;17.95;;;10.20;99.40;;;;;;5113794;28;20034;-42
2022/03/29 05:50:46;;;;;;;32.70;20.30;;;10.30;99.10;;;;;;5116179;28;20026;-43
2022/03/29 05:53:12;;;;;;;32.70;20.02;;;10.30;99.20;;;;;;5115317;28;20075;-44
2022/03/29 05:55:37;;;;;;;35.22;22.05;;;10.50;99.00;;;;;;5115859;28;20126;-45
2022/03/29 05:58:03;;;;;;;39.72;21.83;;;10.50;98.80;;;;;;5114102;28;20020;-44
2022/03/29 06:00:31;;;;;;;35.40;21.65;;;10.50;98.90;;;;;;5116400;28;20035;-42
2022/03/29 06:02:57;;;;;;;34.67;21.75;;;10.50;99.20;;;;;;5116360;28;20071;-44
2022/03/29 06:05:22;;;;;;;41.35;21.65;;;10.50;99.30;;;;;;5116198;28;20411;-45
2022/03/29 06:07:48;;;;;;;39.38;21.33;;;10.50;99.70;;;;;;5097450;28;20030;-43
2022/03/29 06:10:14;;;;;;;33.13;20.02;;;10.50;99.60;;;;;;5115394;28;20028;-43
2022/03/29 06:12:44;;;;;;;37.03;19.25;;;10.60;99.60;;;;;;5115156;28;20428;-42
2022/03/29 06:15:11;;;;;;;28.45;18.58;;;10.60;99.70;;;;;;5115248;28;20019;-43
2022/03/29 06:17:37;;;;;;;38.38;17.10;;;10.60;99.30;;;;;;5115673;28;20020;-43
2022/03/29 06:20:06;;;;;;;42.40;18.20;;;10.60;99.40;;;;;;5116020;28;20038;-41
2022/03/29 06:22:35;;;;;;;38.35;20.20;;;10.60;99.90;;;;;;5115813;28;20453;-43
2022/03/29 06:25:01;;;;;;;45.92;18.83;;;10.50;99.90;;;;;;5117236;28;20034;-42
2022/03/29 06:27:26;;;;;;;39.78;18.73;;;10.50;99.90;;;;;;5115682;28;20032;-43
2022/03/29 06:29:56;;;;;;;32.10;17.75;;;10.50;99.90;;;;;;5117261;28;20024;-42
2022/03/29 06:32:22;;;;;;;35.25;19.45;;;10.60;99.90;;;;;;5116240;28;20027;-43
2022/03/29 06:34:47;;;;;;;35.38;21.48;;;10.60;99.90;;;;;;5116100;28;20217;-43
2022/03/29 06:37:13;;;;;;;40.50;22.10;;;10.70;99.80;;;;;;5116779;28;20053;-42
2022/03/29 06:39:39;;;;;;;55.85;23.80;;;10.70;99.90;;;;;;5119383;28;20020;-43
2022/03/29 06:42:04;;;;;;;33.75;20.90;;;10.80;99.90;;;;;;5120150;28;20024;-44
2022/03/29 06:44:33;;;;;;;44.85;23.52;;;10.80;99.90;;;;;;5119213;28;20501;-42
2022/03/29 06:46:58;;;;;;;42.08;22.70;;;10.80;99.90;;;;;;5118922;28;20026;-43
2022/03/29 06:49:24;;;;;;;43.28;23.38;;;10.90;99.90;;;;;;5119299;28;20067;-43
2022/03/29 06:51:50;;;;;;;44.35;24.10;;;11.00;99.90;;;;;;5118612;28;20028;-42
2022/03/29 06:54:15;;;;;;;40.72;23.90;;;11.10;99.90;;;;;;5119793;28;20027;-45
2022/03/29 06:56:41;;;;;;;39.33;22.90;;;11.10;99.60;;;;;;5119228;28;20486;-42
2022/03/29 06:59:07;;;;;;;41.33;23.58;;;11.20;99.50;;;;;;5118065;28;20051;-44
2022/03/29 07:01:32;;;;;;;47.08;23.75;;;11.30;99.10;;;;;;5116808;28;20051;-44
2022/03/29 07:03:59;;;;;;;41.15;23.48;;;11.30;99.20;;;;;;5116571;28;20030;-43
2022/03/29 07:06:26;;;;;;;38.30;22.30;;;11.40;98.80;;;;;;5116501;28;20599;-43
2022/03/29 07:11:35;;;;;;;43.78;23.30;;;11.50;99.40;;;;;;5116433;28;20111;-50
2022/03/29 07:14:01;;;;;;;43.90;24.77;;;11.50;98.90;;;;;;5116048;28;20609;-45
2022/03/29 07:16:28;;;;;;;42.35;23.58;;;11.60;98.90;;;;;;5116012;28;20024;-43
2022/03/29 07:18:54;;;;;;;37.10;21.20;;;11.70;98.70;;;;;;5115799;28;20019;-46
2022/03/29 07:21:22;;;;;;;40.22;24.35;;;11.80;98.80;;;;;;5116163;28;20095;-46
2022/03/29 07:23:47;;;;;;;44.10;22.45;;;12.00;98.10;;;;;;5116019;28;20056;-44
2022/03/29 07:26:13;;;;;;;38.20;22.27;;;12.10;98.00;;;;;;5115849;28;20031;-46
2022/03/29 07:28:38;;;;;;;36.50;22.55;;;12.30;97.40;;;;;;5115670;28;20035;-46
2022/03/29 07:31:04;;;;;;;44.65;22.67;;;12.50;97.20;;;;;;5115683;28;20043;-45
2022/03/29 07:33:31;;;;;;;45.25;22.85;;;12.70;96.90;;;;;;5115332;28;20028;-44
2022/03/29 07:35:56;;;;;;;36.47;21.35;;;13.00;96.40;;;;;;5115411;28;20032;-45
2022/03/29 07:38:22;;;;;;;38.08;22.38;;;13.10;96.40;;;;;;5115353;28;20024;-43
2022/03/29 07:40:47;;;;;;;42.25;22.60;;;13.20;96.10;;;;;;5115687;28;20018;-44
2022/03/29 07:43:13;;;;;;;36.78;21.80;;;13.40;95.20;;;;;;5115338;28;20111;-46
2022/03/29 07:45:39;;;;;;;33.97;21.13;;;13.50;95.20;;;;;;5115379;28;20020;-46
2022/03/29 07:48:05;;;;;;;36.80;22.23;;;13.60;94.80;;;;;;5114264;28;20077;-42
2022/03/29 07:50:33;;;;;;;40.10;22.35;;;13.60;94.80;;;;;;5115322;28;20035;-44
2022/03/29 07:53:00;;;;;;;40.30;22.08;;;13.50;94.90;;;;;;5097134;28;20475;-44
2022/03/29 07:55:26;;;;;;;43.40;21.63;;;13.50;94.70;;;;;;5115371;28;20054;-43
2022/03/29 07:57:52;;;;;;;35.83;23.30;;;13.60;94.60;;;;;;5114744;28;20458;-44
2022/03/29 08:00:37;;;;;;;35.92;22.50;;;13.50;95.00;;;;;;5115004;28;20106;-45
2022/03/29 08:03:11;;;;;;;43.60;22.07;;;13.40;94.70;;;;;;5114869;28;20456;-45
2022/03/29 08:05:39;;;;;;;37.15;22.75;;;13.20;95.40;;;;;;5115349;28;20023;-48
2022/03/29 08:08:05;;;;;;;41.65;22.00;;;13.10;95.60;;;;;;5114827;28;20030;-43
2022/03/29 08:10:32;;;;;;;43.55;22.48;;;13.10;95.90;;;;;;5114984;28;20028;-42
2022/03/29 08:13:00;;;;;;;38.85;20.90;;;13.30;95.80;;;;;;5114599;28;20093;-45
2022/03/29 08:15:28;;;;;;;35.40;20.52;;;13.50;94.90;;;;;;5114796;28;20015;-44
2022/03/29 08:17:55;;;;;;;40.72;20.17;;;13.60;94.80;;;;;;5096069;28;20487;-46
2022/03/29 08:20:21;;;;;;;32.22;19.75;;;13.70;94.40;;;;;;5114465;28;20024;-43
2022/03/29 08:22:46;;;;;;;37.92;19.52;;;13.80;93.90;;;;;;5114647;28;20032;-44
2022/03/29 08:25:13;;;;;;;38.92;21.05;;;14.00;93.40;;;;;;5114523;28;20051;-44
2022/03/29 08:27:39;;;;;;;35.58;19.58;;;14.00;93.50;;;;;;5114114;28;20511;-44
2022/03/29 08:30:05;;;;;;;35.70;20.65;;;13.90;93.10;;;;;;5114480;28;20019;-43
2022/03/29 08:35:12;;;;;;;34.70;20.77;;;13.90;93.30;;;;;;5091128;28;20047;-38
2022/03/29 08:37:39;;;;;;;34.80;20.00;;;14.10;93.50;;;;;;5093299;28;20019;-42
2022/03/29 08:40:09;;;;;;;31.58;19.27;;;14.10;93.40;;;;;;5094356;28;20501;-44
2022/03/29 08:42:35;;;;;;;36.47;20.05;;;14.40;93.50;;;;;;5093496;28;20063;-41
2022/03/29 08:45:06;;;;;;;38.65;22.70;;;14.30;92.60;;;;;;5075353;28;20028;-43
2022/03/29 08:47:32;;;;;;;31.52;19.85;;;14.30;92.20;;;;;;5092918;28;20445;-41
2022/03/29 08:49:58;;;;;;;33.80;19.98;;;14.40;92.20;;;;;;5093362;28;20360;-45
2022/03/29 08:52:24;;;;;;;29.63;19.48;;;14.40;92.90;;;;;;5093287;28;20032;-44
2022/03/29 08:54:50;;;;;;;41.90;20.55;;;14.40;92.30;;;;;;5092826;28;20436;-45
2022/03/29 08:57:16;;;;;;;32.92;20.02;;;14.40;92.20;;;;;;5074230;28;20440;-44
2022/03/29 08:59:42;;;;;;;29.75;19.15;;;14.50;92.10;;;;;;5092687;28;20020;-42
2022/03/29 09:02:12;;;;;;;33.15;20.00;;;14.50;91.50;;;;;;5092744;28;20403;-43
2022/03/29 09:04:38;;;;;;;31.33;20.75;;;14.50;91.50;;;;;;5093034;28;20028;-45
2022/03/29 09:07:03;;;;;;;35.08;19.77;;;14.40;91.40;;;;;;5092363;28;20065;-47
2022/03/29 09:09:35;;;;;;;34.00;19.50;;;14.40;91.60;;;;;;5092107;28;20044;-43
2022/03/29 09:12:16;;;;;;;34.78;21.13;;;14.40;91.70;;;;;;5092515;28;20118;-43
2022/03/29 09:14:54;;;;;;;35.80;20.05;;;14.20;91.70;;;;;;5092589;28;20012;-42
2022/03/29 09:17:27;;;;;;;35.03;18.77;;;14.20;91.70;;;;;;5092312;28;20028;-43
2022/03/29 09:19:55;;;;;;;34.10;19.00;;;14.30;91.30;;;;;;5092449;28;20024;-42
2022/03/29 09:22:55;;;;;;;33.40;18.23;;;14.40;91.50;;;;;;5092551;28;20024;-47
2022/03/29 09:25:23;;;;;;;34.00;20.40;;;14.50;90.90;;;;;;5092835;28;20073;-44
2022/03/29 09:27:55;;;;;;;29.33;19.73;;;14.50;90.80;;;;;;5092057;28;20490;-43
2022/03/29 09:30:22;;;;;;;36.63;20.67;;;14.40;91.40;;;;;;5092467;28;20032;-43
2022/03/29 09:33:05;;;;;;;36.45;20.17;;;14.40;91.30;;;;;;5092209;28;20513;-45
2022/03/29 09:35:32;;;;;;;34.83;19.10;;;14.40;90.80;;;;;;5092567;28;20032;-42
2022/03/29 09:37:59;;;;;;;37.10;20.02;;;14.30;90.90;;;;;;5092012;28;20475;-46
2022/03/29 09:40:40;;;;;;;34.42;20.58;;;14.40;90.90;;;;;;5092292;28;20150;-42
2022/03/29 09:43:10;;;;;;;34.17;19.80;;;14.60;90.90;;;;;;5092020;28;20506;-44
2022/03/29 09:45:47;;;;;;;31.52;19.10;;;14.70;90.70;;;;;;5091996;28;20410;-46
2022/03/29 09:48:26;;;;;;;31.48;19.42;;;14.80;90.50;;;;;;5091945;28;20150;-42
2022/03/29 09:50:54;;;;;;;35.67;20.27;;;14.90;90.40;;;;;;5092071;28;20039;-45
2022/03/29 09:54:03;;;;;;;26.00;18.70;;;14.90;90.10;;;;;;5092101;28;20028;-43
2022/03/29 09:56:30;;;;;;;36.70;20.83;;;15.00;90.00;;;;;;5074827;28;20028;-44
2022/03/29 09:59:16;;;;;;;34.30;20.65;;;15.10;90.10;;;;;;5093221;28;20455;-43
2022/03/29 10:01:57;;;;;;;37.63;22.30;;;15.10;89.20;;;;;;5093329;28;20031;-43
2022/03/29 10:04:30;;;;;;;31.10;19.33;;;14.80;89.10;;;;;;5092972;28;20024;-43
2022/03/29 10:06:58;;;;;;;31.90;18.20;;;14.70;90.00;;;;;;5091664;28;20383;-43
2022/03/29 10:09:35;;;;;;;39.13;20.65;;;14.90;88.80;;;;;;5091687;28;20028;-44
2022/03/29 10:12:06;;;;;;;26.33;16.30;;;15.00;89.30;;;;;;5091225;28;20104;-44
2022/03/29 10:14:38;;;;;;;35.47;17.52;;;15.30;87.50;;;;;;5091651;28;20058;-45
2022/03/29 10:17:04;;;;;;;34.75;18.48;;;15.50;87.80;;;;;;5091528;28;20020;-44
2022/03/29 10:19:30;;;;;;;36.63;17.85;;;15.60;86.90;;;;;;5092096;28;20017;-42
2022/03/29 10:21:58;;;;;;;27.92;17.10;;;15.80;86.80;;;;;;5073609;28;20397;-44
2022/03/29 10:24:25;;;;;;;29.77;19.23;;;15.90;85.90;;;;;;5091525;28;20069;-41
2022/03/29 10:26:52;;;;;;;30.63;17.95;;;16.00;85.40;;;;;;5091203;28;20028;-43
2022/03/29 10:29:19;;;;;;;30.25;18.77;;;16.10;85.30;;;;;;5091683;28;20031;-45
2022/03/29 10:31:54;;;;;;;32.75;18.50;;;16.20;85.20;;;;;;5091535;28;20231;-40
2022/03/29 10:34:24;;;;;;;32.22;16.77;;;16.20;84.70;;;;;;5091428;28;20035;-41
2022/03/29 10:37:18;;;;;;;29.13;18.70;;;16.10;84.50;;;;;;5091251;28;20020;-42
2022/03/29 10:39:59;;;;;;;27.42;18.17;;;16.10;84.10;;;;;;5073205;28;20023;-43
2022/03/29 10:42:33;;;;;;;28.77;18.25;;;16.00;83.90;;;;;;5091538;28;20030;-41
2022/03/29 10:45:20;;;;;;;25.92;16.98;;;16.00;84.00;;;;;;5091433;28;20025;-41
2022/03/29 10:47:55;;;;;;;32.58;18.33;;;15.90;83.50;;;;;;5091234;28;20028;-41
2022/03/29 10:50:21;;;;;;;29.75;19.65;;;16.00;83.30;;;;;;5091300;28;20051;-42
2022/03/29 10:52:49;;;;;;;29.70;17.67;;;15.90;83.60;;;;;;5091167;28;20060;-40
2022/03/29 10:55:28;;;;;;;31.45;18.05;;;15.90;83.50;;;;;;5091141;28;20032;-41
2022/03/29 10:58:13;;;;;;;28.85;18.70;;;16.00;83.70;;;;;;5090726;28;20425;-41
2022/03/29 11:00:42;;;;;;;30.25;19.33;;;16.00;83.40;;;;;;5091206;28;20027;-41
2022/03/29 11:03:15;;;;;;;29.63;19.35;;;16.10;84.20;;;;;;5091121;28;20039;-41
2022/03/29 11:06:10;;;;;;;34.25;17.63;;;16.10;85.00;;;;;;5091217;28;20032;-45
2022/03/29 11:08:37;;;;;;;30.65;18.38;;;16.00;82.50;;;;;;5090548;28;20190;-44
2022/03/29 11:11:04;;;;;;;38.95;18.95;;;16.00;82.50;;;;;;5091169;28;20020;-43
2022/03/29 11:13:31;;;;;;;26.25;16.95;;;16.00;83.20;;;;;;5091004;28;20024;-41
2022/03/29 11:16:02;;;;;;;26.90;17.63;;;15.80;83.20;;;;;;5091164;28;20424;-42
2022/03/29 11:18:30;;;;;;;26.83;17.45;;;16.00;83.00;;;;;;5090721;28;20111;-43
2022/03/29 11:21:02;;;;;;;29.40;17.17;;;16.00;84.40;;;;;;5090857;28;20046;-46
2022/03/29 11:23:46;;;;;;;30.33;18.42;;;16.00;84.20;;;;;;5092921;28;20024;-40
2022/03/29 11:26:14;;;;;;;28.33;17.77;;;15.90;84.90;;;;;;5076622;28;20073;-41
2022/03/29 11:28:54;;;;;;;34.42;17.48;;;16.00;83.40;;;;;;5094445;28;20020;-43
2022/03/29 11:31:21;;;;;;;31.98;18.35;;;15.90;83.90;;;;;;5094588;28;20027;-43
2022/03/29 11:33:52;;;;;;;36.63;16.77;;;15.80;83.30;;;;;;5094338;28;20111;-41
2022/03/29 11:36:19;;;;;;;47.47;29.48;;;15.90;83.50;;;;;;5094562;28;20012;-43
2022/03/29 11:38:45;;;;;;;50.50;29.15;;;15.90;82.90;;;;;;5094062;28;20414;-42
2022/03/29 11:41:23;;;;;;;24.88;16.42;;;16.00;82.90;;;;;;5094204;28;20025;-40
2022/03/29 11:43:53;;;;;;;30.17;16.15;;;16.00;82.60;;;;;;5094703;28;20645;-42
2022/03/29 11:46:19;;;;;;;25.30;16.77;;;16.00;82.20;;;;;;5094392;28;20028;-40
2022/03/29 11:48:50;;;;;;;30.05;17.23;;;16.00;81.90;;;;;;5094085;28;20415;-39
2022/03/29 11:51:16;;;;;;;30.90;16.27;;;16.00;82.00;;;;;;5094961;28;20027;-40
2022/03/29 11:53:43;;;;;;;28.50;16.25;;;16.10;81.80;;;;;;5094995;28;20028;-42
2022/03/29 11:56:13;;;;;;;28.65;17.17;;;16.10;81.90;;;;;;5094771;28;20100;-42
2022/03/29 11:58:49;;;;;;;26.60;16.67;;;16.20;81.70;;;;;;5094299;28;20020;-45
2022/03/29 12:01:18;;;;;;;24.63;15.55;;;16.30;83.00;;;;;;5094326;28;20028;-41
2022/03/29 12:03:52;;;;;;;29.58;17.25;;;16.30;83.10;;;;;;5094266;28;20024;-42
2022/03/29 12:06:20;;;;;;;32.92;19.25;;;16.20;82.90;;;;;;5094278;28;20028;-46
2022/03/29 12:08:50;;;;;;;26.80;16.95;;;16.20;82.30;;;;;;5093819;28;20483;-45
2022/03/29 12:11:19;;;;;;;30.05;18.67;;;16.10;82.40;;;;;;5094204;28;20028;-39
2022/03/29 12:13:46;;;;;;;31.95;17.23;;;16.20;81.80;;;;;;5075689;28;20028;-42
2022/03/29 12:16:23;;;;;;;36.22;18.05;;;16.10;82.20;;;;;;5075692;28;20077;-42
2022/03/29 12:18:50;;;;;;;37.30;18.33;;;16.10;82.50;;;;;;5093681;28;20027;-44
2022/03/29 12:21:18;;;;;;;27.08;17.48;;;16.10;81.80;;;;;;5094033;28;20023;-42
2022/03/29 12:23:44;;;;;;;30.75;16.15;;;16.10;82.10;;;;;;5093626;28;20074;-44
2022/03/29 12:26:12;;;;;;;26.63;17.35;;;16.20;81.80;;;;;;5093670;28;20024;-42
2022/03/29 12:28:39;;;;;;;26.17;16.90;;;16.20;82.00;;;;;;5093248;28;20550;-45
2022/03/29 12:31:12;;;;;;;28.75;17.13;;;16.10;81.40;;;;;;5075368;28;20047;-45
2022/03/29 12:33:39;;;;;;;24.15;16.38;;;16.30;81.80;;;;;;5093059;28;20483;-43
2022/03/29 12:36:24;;;;;;;24.95;16.00;;;16.40;81.70;;;;;;5092936;28;20020;-42
2022/03/29 12:38:54;;;;;;;29.07;16.33;;;16.50;80.90;;;;;;5092852;28;20016;-41
2022/03/29 12:41:41;;;;;;;24.50;15.18;;;16.60;80.00;;;;;;5093161;28;20019;-43